sensor_id;sensor_type;location;lat;lon;timestamp;P1;durP1;ratioP1;P2;durP2;ratioP2
4957;SDS011;2494;51.872;9.688;2023-06-22T00:01:37;12.00;;;10.33;;
4957;SDS011;2494;51.872;9.688;2023-06-22T00:04:22;12.57;;;11.43;;
4957;SDS011;2494;51.872;9.688;2023-06-22T00:07:07;13.67;;;11.07;;
4957;SDS011;2494;51.872;9.688;2023-06-22T00:09:54;13.10;;;11.20;;
4957;SDS011;2494;51.872;9.688;2023-06-22T00:12:39;13.20;;;12.03;;
4957;SDS011;2494;51.872;9.688;2023-06-22T00:15:24;14.40;;;13.23;;
4957;SDS011;2494;51.872;9.688;2023-06-22T00:18:10;14.13;;;12.80;;
4957;SDS011;2494;51.872;9.688;2023-06-22T00:20:55;12.70;;;11.53;;
4957;SDS011;2494;51.872;9.688;2023-06-22T00:23:42;12.90;;;11.83;;
4957;SDS011;2494;51.872;9.688;2023-06-22T00:26:29;13.90;;;12.50;;
4957;SDS011;2494;51.872;9.688;2023-06-22T00:29:14;16.83;;;12.17;;
4957;SDS011;2494;51.872;9.688;2023-06-22T00:31:59;15.13;;;13.90;;
4957;SDS011;2494;51.872;9.688;2023-06-22T00:34:44;14.53;;;13.37;;
4957;SDS011;2494;51.872;9.688;2023-06-22T00:37:29;13.30;;;12.00;;
4957;SDS011;2494;51.872;9.688;2023-06-22T00:40:14;12.90;;;11.47;;
4957;SDS011;2494;51.872;9.688;2023-06-22T00:43:06;12.83;;;11.73;;
4957;SDS011;2494;51.872;9.688;2023-06-22T00:45:51;12.97;;;11.67;;
4957;SDS011;2494;51.872;9.688;2023-06-22T00:48:36;15.10;;;12.43;;
4957;SDS011;2494;51.872;9.688;2023-06-22T00:51:21;16.23;;;12.70;;
4957;SDS011;2494;51.872;9.688;2023-06-22T00:54:07;15.97;;;14.03;;
4957;SDS011;2494;51.872;9.688;2023-06-22T00:56:53;16.30;;;12.20;;
4957;SDS011;2494;51.872;9.688;2023-06-22T00:59:41;14.20;;;12.77;;
4957;SDS011;2494;51.872;9.688;2023-06-22T01:02:26;16.57;;;14.13;;
4957;SDS011;2494;51.872;9.688;2023-06-22T01:05:13;14.33;;;12.27;;
4957;SDS011;2494;51.872;9.688;2023-06-22T01:08:00;20.30;;;13.37;;
4957;SDS011;2494;51.872;9.688;2023-06-22T01:10:50;22.53;;;13.60;;
4957;SDS011;2494;51.872;9.688;2023-06-22T01:13:37;15.57;;;13.93;;
4957;SDS011;2494;51.872;9.688;2023-06-22T01:16:26;15.50;;;13.93;;
4957;SDS011;2494;51.872;9.688;2023-06-22T01:19:18;15.00;;;13.40;;
4957;SDS011;2494;51.872;9.688;2023-06-22T01:22:03;15.70;;;13.83;;
4957;SDS011;2494;51.872;9.688;2023-06-22T01:24:53;15.30;;;12.90;;
4957;SDS011;2494;51.872;9.688;2023-06-22T01:27:40;14.70;;;11.43;;
4957;SDS011;2494;51.872;9.688;2023-06-22T01:30:31;12.67;;;11.63;;
4957;SDS011;2494;51.872;9.688;2023-06-22T01:33:17;13.80;;;12.40;;
4957;SDS011;2494;51.872;9.688;2023-06-22T01:36:03;23.57;;;13.17;;
4957;SDS011;2494;51.872;9.688;2023-06-22T01:38:49;24.93;;;13.30;;
4957;SDS011;2494;51.872;9.688;2023-06-22T01:41:35;13.30;;;11.57;;
4957;SDS011;2494;51.872;9.688;2023-06-22T01:44:20;14.80;;;13.03;;
4957;SDS011;2494;51.872;9.688;2023-06-22T01:47:07;25.90;;;11.93;;
4957;SDS011;2494;51.872;9.688;2023-06-22T01:49:52;17.40;;;12.70;;
4957;SDS011;2494;51.872;9.688;2023-06-22T01:52:37;20.17;;;13.37;;
4957;SDS011;2494;51.872;9.688;2023-06-22T01:55:22;13.50;;;12.23;;
4957;SDS011;2494;51.872;9.688;2023-06-22T01:58:07;17.90;;;12.00;;
4957;SDS011;2494;51.872;9.688;2023-06-22T02:00:53;15.73;;;11.10;;
4957;SDS011;2494;51.872;9.688;2023-06-22T02:03:43;16.20;;;12.83;;
4957;SDS011;2494;51.872;9.688;2023-06-22T02:06:31;15.33;;;12.60;;
4957;SDS011;2494;51.872;9.688;2023-06-22T02:09:19;17.77;;;13.00;;
4957;SDS011;2494;51.872;9.688;2023-06-22T02:12:06;24.43;;;13.97;;
4957;SDS011;2494;51.872;9.688;2023-06-22T02:14:51;21.83;;;13.13;;
4957;SDS011;2494;51.872;9.688;2023-06-22T02:17:37;28.37;;;12.73;;
4957;SDS011;2494;51.872;9.688;2023-06-22T02:20:24;17.87;;;13.23;;
4957;SDS011;2494;51.872;9.688;2023-06-22T02:23:09;33.40;;;14.60;;
4957;SDS011;2494;51.872;9.688;2023-06-22T02:25:54;15.20;;;12.07;;
4957;SDS011;2494;51.872;9.688;2023-06-22T02:28:39;16.90;;;13.50;;
4957;SDS011;2494;51.872;9.688;2023-06-22T02:31:24;16.80;;;14.97;;
4957;SDS011;2494;51.872;9.688;2023-06-22T02:34:13;17.53;;;13.70;;
4957;SDS011;2494;51.872;9.688;2023-06-22T02:37:03;16.93;;;15.43;;
4957;SDS011;2494;51.872;9.688;2023-06-22T02:39:48;17.77;;;16.07;;
4957;SDS011;2494;51.872;9.688;2023-06-22T02:42:33;19.40;;;17.77;;
4957;SDS011;2494;51.872;9.688;2023-06-22T02:45:18;18.47;;;16.80;;
4957;SDS011;2494;51.872;9.688;2023-06-22T02:48:03;19.00;;;17.53;;
4957;SDS011;2494;51.872;9.688;2023-06-22T02:50:48;19.33;;;17.40;;
4957;SDS011;2494;51.872;9.688;2023-06-22T02:53:35;20.90;;;19.07;;
4957;SDS011;2494;51.872;9.688;2023-06-22T02:56:20;20.20;;;18.60;;
4957;SDS011;2494;51.872;9.688;2023-06-22T02:59:08;21.43;;;19.27;;
4957;SDS011;2494;51.872;9.688;2023-06-22T03:01:54;21.37;;;19.37;;
4957;SDS011;2494;51.872;9.688;2023-06-22T03:04:39;18.90;;;17.30;;
4957;SDS011;2494;51.872;9.688;2023-06-22T03:07:24;20.30;;;18.60;;
4957;SDS011;2494;51.872;9.688;2023-06-22T03:10:11;18.10;;;16.50;;
4957;SDS011;2494;51.872;9.688;2023-06-22T03:12:56;19.30;;;17.60;;
4957;SDS011;2494;51.872;9.688;2023-06-22T03:15:41;18.53;;;17.00;;
4957;SDS011;2494;51.872;9.688;2023-06-22T03:18:26;18.70;;;17.03;;
4957;SDS011;2494;51.872;9.688;2023-06-22T03:21:11;19.23;;;17.70;;
4957;SDS011;2494;51.872;9.688;2023-06-22T03:23:56;17.47;;;15.87;;
4957;SDS011;2494;51.872;9.688;2023-06-22T03:26:42;17.70;;;16.10;;
4957;SDS011;2494;51.872;9.688;2023-06-22T03:29:29;17.27;;;15.77;;
4957;SDS011;2494;51.872;9.688;2023-06-22T03:32:14;17.87;;;16.30;;
4957;SDS011;2494;51.872;9.688;2023-06-22T03:34:59;16.70;;;15.33;;
4957;SDS011;2494;51.872;9.688;2023-06-22T03:37:44;19.23;;;17.30;;
4957;SDS011;2494;51.872;9.688;2023-06-22T03:40:29;18.90;;;16.90;;
4957;SDS011;2494;51.872;9.688;2023-06-22T03:43:15;18.17;;;16.27;;
4957;SDS011;2494;51.872;9.688;2023-06-22T03:46:00;17.80;;;16.20;;
4957;SDS011;2494;51.872;9.688;2023-06-22T03:48:45;16.63;;;15.00;;
4957;SDS011;2494;51.872;9.688;2023-06-22T03:51:30;17.23;;;15.53;;
4957;SDS011;2494;51.872;9.688;2023-06-22T03:54:15;15.67;;;14.47;;
4957;SDS011;2494;51.872;9.688;2023-06-22T03:57:00;16.70;;;15.13;;
4957;SDS011;2494;51.872;9.688;2023-06-22T03:59:47;17.20;;;15.50;;
4957;SDS011;2494;51.872;9.688;2023-06-22T04:02:32;18.23;;;16.30;;
4957;SDS011;2494;51.872;9.688;2023-06-22T04:05:17;18.10;;;16.40;;
4957;SDS011;2494;51.872;9.688;2023-06-22T04:08:03;20.07;;;18.13;;
4957;SDS011;2494;51.872;9.688;2023-06-22T04:10:48;18.70;;;16.30;;
4957;SDS011;2494;51.872;9.688;2023-06-22T04:13:33;18.80;;;17.10;;
4957;SDS011;2494;51.872;9.688;2023-06-22T04:16:19;18.93;;;17.33;;
4957;SDS011;2494;51.872;9.688;2023-06-22T04:19:05;16.57;;;15.17;;
4957;SDS011;2494;51.872;9.688;2023-06-22T04:21:49;16.67;;;15.07;;
4957;SDS011;2494;51.872;9.688;2023-06-22T04:24:34;17.63;;;15.83;;
4957;SDS011;2494;51.872;9.688;2023-06-22T04:27:19;21.33;;;16.70;;
4957;SDS011;2494;51.872;9.688;2023-06-22T04:30:07;20.97;;;17.17;;
4957;SDS011;2494;51.872;9.688;2023-06-22T04:32:53;19.50;;;17.60;;
4957;SDS011;2494;51.872;9.688;2023-06-22T04:35:41;18.03;;;16.30;;
4957;SDS011;2494;51.872;9.688;2023-06-22T04:38:26;21.53;;;16.07;;
4957;SDS011;2494;51.872;9.688;2023-06-22T04:41:11;19.00;;;16.97;;
4957;SDS011;2494;51.872;9.688;2023-06-22T04:44:07;19.13;;;15.87;;
4957;SDS011;2494;51.872;9.688;2023-06-22T04:46:53;17.47;;;15.47;;
4957;SDS011;2494;51.872;9.688;2023-06-22T04:49:44;19.07;;;17.20;;
4957;SDS011;2494;51.872;9.688;2023-06-22T04:52:29;19.87;;;17.57;;
4957;SDS011;2494;51.872;9.688;2023-06-22T04:55:14;21.77;;;19.30;;
4957;SDS011;2494;51.872;9.688;2023-06-22T04:58:01;23.60;;;21.33;;
4957;SDS011;2494;51.872;9.688;2023-06-22T05:00:48;28.20;;;25.50;;
4957;SDS011;2494;51.872;9.688;2023-06-22T05:03:35;28.80;;;26.03;;
4957;SDS011;2494;51.872;9.688;2023-06-22T05:06:23;29.87;;;27.20;;
4957;SDS011;2494;51.872;9.688;2023-06-22T05:09:09;33.20;;;29.83;;
4957;SDS011;2494;51.872;9.688;2023-06-22T05:11:55;31.30;;;28.40;;
4957;SDS011;2494;51.872;9.688;2023-06-22T05:14:41;31.90;;;27.20;;
4957;SDS011;2494;51.872;9.688;2023-06-22T05:17:26;29.37;;;26.57;;
4957;SDS011;2494;51.872;9.688;2023-06-22T05:20:12;27.80;;;24.93;;
4957;SDS011;2494;51.872;9.688;2023-06-22T05:22:59;25.70;;;23.23;;
4957;SDS011;2494;51.872;9.688;2023-06-22T05:25:44;26.97;;;24.40;;
4957;SDS011;2494;51.872;9.688;2023-06-22T05:28:28;27.30;;;24.60;;
4957;SDS011;2494;51.872;9.688;2023-06-22T05:31:14;27.23;;;24.93;;
4957;SDS011;2494;51.872;9.688;2023-06-22T05:33:59;28.63;;;25.73;;
4957;SDS011;2494;51.872;9.688;2023-06-22T05:36:44;27.47;;;24.90;;
4957;SDS011;2494;51.872;9.688;2023-06-22T05:39:31;27.40;;;24.80;;
4957;SDS011;2494;51.872;9.688;2023-06-22T05:42:16;28.67;;;25.90;;
4957;SDS011;2494;51.872;9.688;2023-06-22T05:45:01;46.33;;;34.90;;
4957;SDS011;2494;51.872;9.688;2023-06-22T05:47:46;38.93;;;32.40;;
4957;SDS011;2494;51.872;9.688;2023-06-22T05:50:36;50.80;;;34.37;;
4957;SDS011;2494;51.872;9.688;2023-06-22T05:53:21;34.73;;;31.13;;
4957;SDS011;2494;51.872;9.688;2023-06-22T05:56:08;33.90;;;29.67;;
4957;SDS011;2494;51.872;9.688;2023-06-22T05:58:53;35.73;;;32.03;;
4957;SDS011;2494;51.872;9.688;2023-06-22T06:01:38;36.73;;;31.90;;
4957;SDS011;2494;51.872;9.688;2023-06-22T06:04:23;35.00;;;31.63;;
4957;SDS011;2494;51.872;9.688;2023-06-22T06:07:11;37.53;;;33.60;;
4957;SDS011;2494;51.872;9.688;2023-06-22T06:09:56;34.73;;;31.23;;
4957;SDS011;2494;51.872;9.688;2023-06-22T06:12:43;32.57;;;29.40;;
4957;SDS011;2494;51.872;9.688;2023-06-22T06:15:28;34.57;;;31.07;;
4957;SDS011;2494;51.872;9.688;2023-06-22T06:18:13;31.03;;;28.10;;
4957;SDS011;2494;51.872;9.688;2023-06-22T06:20:58;25.03;;;22.83;;
4957;SDS011;2494;51.872;9.688;2023-06-22T06:23:43;26.70;;;24.30;;
4957;SDS011;2494;51.872;9.688;2023-06-22T06:26:32;26.87;;;24.37;;
4957;SDS011;2494;51.872;9.688;2023-06-22T06:29:21;28.13;;;25.50;;
4957;SDS011;2494;51.872;9.688;2023-06-22T06:32:07;25.93;;;23.63;;
4957;SDS011;2494;51.872;9.688;2023-06-22T06:34:53;26.47;;;23.97;;
4957;SDS011;2494;51.872;9.688;2023-06-22T06:37:38;28.70;;;25.70;;
4957;SDS011;2494;51.872;9.688;2023-06-22T06:40:24;27.93;;;25.40;;
4957;SDS011;2494;51.872;9.688;2023-06-22T06:43:08;26.17;;;23.83;;
4957;SDS011;2494;51.872;9.688;2023-06-22T06:45:55;27.33;;;24.73;;
4957;SDS011;2494;51.872;9.688;2023-06-22T06:48:40;28.87;;;26.27;;
4957;SDS011;2494;51.872;9.688;2023-06-22T06:51:26;28.73;;;25.80;;
4957;SDS011;2494;51.872;9.688;2023-06-22T06:54:11;27.97;;;25.23;;
4957;SDS011;2494;51.872;9.688;2023-06-22T06:56:56;26.20;;;23.60;;
4957;SDS011;2494;51.872;9.688;2023-06-22T06:59:41;26.30;;;24.00;;
4957;SDS011;2494;51.872;9.688;2023-06-22T07:02:27;28.90;;;26.27;;
4957;SDS011;2494;51.872;9.688;2023-06-22T07:05:13;29.57;;;26.67;;
4957;SDS011;2494;51.872;9.688;2023-06-22T07:07:58;27.30;;;24.90;;
4957;SDS011;2494;51.872;9.688;2023-06-22T07:10:46;27.07;;;24.60;;
4957;SDS011;2494;51.872;9.688;2023-06-22T07:13:31;25.20;;;22.70;;
4957;SDS011;2494;51.872;9.688;2023-06-22T07:16:17;22.60;;;20.73;;
4957;SDS011;2494;51.872;9.688;2023-06-22T07:19:04;23.97;;;21.67;;
4957;SDS011;2494;51.872;9.688;2023-06-22T07:21:49;21.97;;;20.10;;
4957;SDS011;2494;51.872;9.688;2023-06-22T07:24:34;23.00;;;20.90;;
4957;SDS011;2494;51.872;9.688;2023-06-22T07:27:19;22.20;;;20.40;;
4957;SDS011;2494;51.872;9.688;2023-06-22T07:30:05;23.00;;;21.00;;
4957;SDS011;2494;51.872;9.688;2023-06-22T07:32:50;23.53;;;21.73;;
4957;SDS011;2494;51.872;9.688;2023-06-22T07:35:36;24.10;;;22.00;;
4957;SDS011;2494;51.872;9.688;2023-06-22T07:38:21;22.73;;;20.90;;
4957;SDS011;2494;51.872;9.688;2023-06-22T07:41:06;31.27;;;28.60;;
4957;SDS011;2494;51.872;9.688;2023-06-22T07:43:52;23.73;;;21.70;;
4957;SDS011;2494;51.872;9.688;2023-06-22T07:46:37;24.00;;;21.57;;
4957;SDS011;2494;51.872;9.688;2023-06-22T07:49:22;24.47;;;22.47;;
4957;SDS011;2494;51.872;9.688;2023-06-22T07:52:08;23.17;;;20.83;;
4957;SDS011;2494;51.872;9.688;2023-06-22T07:55:09;22.40;;;20.60;;
4957;SDS011;2494;51.872;9.688;2023-06-22T07:57:54;22.23;;;20.50;;
4957;SDS011;2494;51.872;9.688;2023-06-22T08:00:39;22.77;;;20.90;;
4957;SDS011;2494;51.872;9.688;2023-06-22T08:03:24;23.23;;;21.33;;
4957;SDS011;2494;51.872;9.688;2023-06-22T08:06:09;20.70;;;19.17;;
4957;SDS011;2494;51.872;9.688;2023-06-22T08:08:55;21.33;;;19.73;;
4957;SDS011;2494;51.872;9.688;2023-06-22T08:11:42;21.00;;;19.40;;
4957;SDS011;2494;51.872;9.688;2023-06-22T08:14:37;20.43;;;18.57;;
4957;SDS011;2494;51.872;9.688;2023-06-22T08:17:23;20.47;;;18.97;;
4957;SDS011;2494;51.872;9.688;2023-06-22T08:20:08;18.57;;;16.73;;
4957;SDS011;2494;51.872;9.688;2023-06-22T08:22:55;18.33;;;16.97;;
4957;SDS011;2494;51.872;9.688;2023-06-22T08:25:43;19.07;;;17.57;;
4957;SDS011;2494;51.872;9.688;2023-06-22T08:28:27;19.97;;;18.43;;
4957;SDS011;2494;51.872;9.688;2023-06-22T08:31:13;18.63;;;17.33;;
4957;SDS011;2494;51.872;9.688;2023-06-22T08:33:58;19.23;;;17.83;;
4957;SDS011;2494;51.872;9.688;2023-06-22T08:36:43;20.20;;;18.50;;
4957;SDS011;2494;51.872;9.688;2023-06-22T08:39:28;20.30;;;18.70;;
4957;SDS011;2494;51.872;9.688;2023-06-22T08:42:15;17.97;;;16.67;;
4957;SDS011;2494;51.872;9.688;2023-06-22T08:45:00;21.10;;;19.27;;
4957;SDS011;2494;51.872;9.688;2023-06-22T08:47:45;20.50;;;18.80;;
4957;SDS011;2494;51.872;9.688;2023-06-22T08:50:30;20.47;;;18.77;;
4957;SDS011;2494;51.872;9.688;2023-06-22T08:53:15;19.40;;;17.80;;
4957;SDS011;2494;51.872;9.688;2023-06-22T08:56:00;17.67;;;16.37;;
4957;SDS011;2494;51.872;9.688;2023-06-22T08:58:47;16.97;;;15.67;;
4957;SDS011;2494;51.872;9.688;2023-06-22T09:01:31;14.80;;;13.80;;
4957;SDS011;2494;51.872;9.688;2023-06-22T09:04:16;13.33;;;12.43;;
4957;SDS011;2494;51.872;9.688;2023-06-22T09:07:02;13.40;;;12.33;;
4957;SDS011;2494;51.872;9.688;2023-06-22T09:09:47;13.67;;;12.57;;
4957;SDS011;2494;51.872;9.688;2023-06-22T09:12:33;12.23;;;11.40;;
4957;SDS011;2494;51.872;9.688;2023-06-22T09:15:19;11.80;;;10.90;;
4957;SDS011;2494;51.872;9.688;2023-06-22T09:18:04;11.50;;;10.70;;
4957;SDS011;2494;51.872;9.688;2023-06-22T09:20:49;10.57;;;9.77;;
4957;SDS011;2494;51.872;9.688;2023-06-22T09:23:34;9.97;;;9.47;;
4957;SDS011;2494;51.872;9.688;2023-06-22T09:26:19;11.40;;;10.60;;
4957;SDS011;2494;51.872;9.688;2023-06-22T09:29:04;10.53;;;9.80;;
4957;SDS011;2494;51.872;9.688;2023-06-22T09:31:51;10.33;;;9.47;;
4957;SDS011;2494;51.872;9.688;2023-06-22T09:34:37;8.60;;;8.20;;
4957;SDS011;2494;51.872;9.688;2023-06-22T09:37:22;8.80;;;8.27;;
4957;SDS011;2494;51.872;9.688;2023-06-22T09:40:07;8.50;;;8.10;;
4957;SDS011;2494;51.872;9.688;2023-06-22T09:42:55;8.53;;;7.90;;
4957;SDS011;2494;51.872;9.688;2023-06-22T09:45:39;7.60;;;7.20;;
4957;SDS011;2494;51.872;9.688;2023-06-22T09:48:26;7.40;;;7.10;;
4957;SDS011;2494;51.872;9.688;2023-06-22T09:51:11;7.77;;;7.47;;
4957;SDS011;2494;51.872;9.688;2023-06-22T09:53:56;7.50;;;7.20;;
4957;SDS011;2494;51.872;9.688;2023-06-22T09:56:41;8.47;;;7.97;;
4957;SDS011;2494;51.872;9.688;2023-06-22T09:59:45;8.40;;;7.80;;
4957;SDS011;2494;51.872;9.688;2023-06-22T10:02:31;8.73;;;8.13;;
4957;SDS011;2494;51.872;9.688;2023-06-22T10:05:17;8.27;;;7.57;;
4957;SDS011;2494;51.872;9.688;2023-06-22T10:08:03;8.40;;;8.00;;
4957;SDS011;2494;51.872;9.688;2023-06-22T10:10:49;8.77;;;8.10;;
4957;SDS011;2494;51.872;9.688;2023-06-22T10:13:34;9.30;;;8.33;;
4957;SDS011;2494;51.872;9.688;2023-06-22T10:16:23;10.13;;;9.20;;
4957;SDS011;2494;51.872;9.688;2023-06-22T10:19:10;10.87;;;9.87;;
4957;SDS011;2494;51.872;9.688;2023-06-22T10:21:56;9.07;;;8.23;;
4957;SDS011;2494;51.872;9.688;2023-06-22T10:24:42;9.87;;;9.00;;
4957;SDS011;2494;51.872;9.688;2023-06-22T10:27:30;9.20;;;8.70;;
4957;SDS011;2494;51.872;9.688;2023-06-22T10:30:15;9.20;;;8.60;;
4957;SDS011;2494;51.872;9.688;2023-06-22T10:33:00;8.93;;;8.20;;
4957;SDS011;2494;51.872;9.688;2023-06-22T10:35:45;10.73;;;10.10;;
4957;SDS011;2494;51.872;9.688;2023-06-22T10:38:32;8.97;;;8.47;;
4957;SDS011;2494;51.872;9.688;2023-06-22T10:41:17;8.73;;;8.13;;
4957;SDS011;2494;51.872;9.688;2023-06-22T10:44:02;9.20;;;8.70;;
4957;SDS011;2494;51.872;9.688;2023-06-22T10:46:48;9.70;;;9.00;;
4957;SDS011;2494;51.872;9.688;2023-06-22T10:49:33;9.60;;;8.90;;
4957;SDS011;2494;51.872;9.688;2023-06-22T10:52:20;9.63;;;8.83;;
4957;SDS011;2494;51.872;9.688;2023-06-22T10:55:09;10.47;;;9.87;;
4957;SDS011;2494;51.872;9.688;2023-06-22T10:57:58;9.67;;;8.97;;
4957;SDS011;2494;51.872;9.688;2023-06-22T11:00:46;9.77;;;9.17;;
4957;SDS011;2494;51.872;9.688;2023-06-22T11:03:30;9.17;;;8.67;;
4957;SDS011;2494;51.872;9.688;2023-06-22T11:06:16;10.57;;;9.80;;
4957;SDS011;2494;51.872;9.688;2023-06-22T11:09:01;10.40;;;9.80;;
4957;SDS011;2494;51.872;9.688;2023-06-22T11:11:49;10.37;;;9.47;;
4957;SDS011;2494;51.872;9.688;2023-06-22T11:14:38;10.03;;;9.20;;
4957;SDS011;2494;51.872;9.688;2023-06-22T11:17:24;9.40;;;8.60;;
4957;SDS011;2494;51.872;9.688;2023-06-22T11:20:10;8.10;;;7.70;;
4957;SDS011;2494;51.872;9.688;2023-06-22T11:22:55;8.63;;;8.20;;
4957;SDS011;2494;51.872;9.688;2023-06-22T11:25:40;10.73;;;10.03;;
4957;SDS011;2494;51.872;9.688;2023-06-22T11:28:27;10.50;;;9.70;;
4957;SDS011;2494;51.872;9.688;2023-06-22T11:31:12;9.40;;;8.90;;
4957;SDS011;2494;51.872;9.688;2023-06-22T11:33:58;10.20;;;9.50;;
4957;SDS011;2494;51.872;9.688;2023-06-22T11:36:43;9.20;;;8.67;;
4957;SDS011;2494;51.872;9.688;2023-06-22T11:39:29;9.73;;;8.93;;
4957;SDS011;2494;51.872;9.688;2023-06-22T11:42:14;9.83;;;9.13;;
4957;SDS011;2494;51.872;9.688;2023-06-22T11:45:00;9.80;;;9.20;;
4957;SDS011;2494;51.872;9.688;2023-06-22T11:47:45;9.03;;;8.50;;
4957;SDS011;2494;51.872;9.688;2023-06-22T11:50:30;10.07;;;9.30;;
4957;SDS011;2494;51.872;9.688;2023-06-22T11:53:20;8.90;;;8.37;;
4957;SDS011;2494;51.872;9.688;2023-06-22T11:56:05;9.00;;;8.60;;
4957;SDS011;2494;51.872;9.688;2023-06-22T11:58:50;9.60;;;9.10;;
4957;SDS011;2494;51.872;9.688;2023-06-22T12:01:36;9.10;;;8.50;;
4957;SDS011;2494;51.872;9.688;2023-06-22T12:04:21;9.80;;;9.10;;
4957;SDS011;2494;51.872;9.688;2023-06-22T12:07:06;10.73;;;10.03;;
4957;SDS011;2494;51.872;9.688;2023-06-22T12:09:51;10.20;;;9.30;;
4957;SDS011;2494;51.872;9.688;2023-06-22T12:12:36;9.53;;;8.90;;
4957;SDS011;2494;51.872;9.688;2023-06-22T12:15:22;10.03;;;9.23;;
4957;SDS011;2494;51.872;9.688;2023-06-22T12:18:08;9.97;;;9.43;;
4957;SDS011;2494;51.872;9.688;2023-06-22T12:20:54;9.50;;;8.90;;
4957;SDS011;2494;51.872;9.688;2023-06-22T12:23:39;9.20;;;8.53;;
4957;SDS011;2494;51.872;9.688;2023-06-22T12:26:24;8.03;;;7.43;;
4957;SDS011;2494;51.872;9.688;2023-06-22T12:29:09;11.10;;;9.57;;
4957;SDS011;2494;51.872;9.688;2023-06-22T12:31:54;9.73;;;9.03;;
4957;SDS011;2494;51.872;9.688;2023-06-22T12:34:41;9.37;;;8.77;;
4957;SDS011;2494;51.872;9.688;2023-06-22T12:37:26;9.77;;;9.17;;
4957;SDS011;2494;51.872;9.688;2023-06-22T12:40:11;9.90;;;9.30;;
4957;SDS011;2494;51.872;9.688;2023-06-22T12:42:57;9.80;;;9.30;;
4957;SDS011;2494;51.872;9.688;2023-06-22T12:45:42;10.00;;;9.40;;
4957;SDS011;2494;51.872;9.688;2023-06-22T12:48:27;10.03;;;9.33;;
4957;SDS011;2494;51.872;9.688;2023-06-22T12:51:19;11.50;;;10.70;;
4957;SDS011;2494;51.872;9.688;2023-06-22T12:54:05;10.17;;;9.57;;
4957;SDS011;2494;51.872;9.688;2023-06-22T12:56:50;12.00;;;11.20;;
4957;SDS011;2494;51.872;9.688;2023-06-22T12:59:35;12.60;;;11.70;;
4957;SDS011;2494;51.872;9.688;2023-06-22T13:02:21;11.47;;;10.67;;
4957;SDS011;2494;51.872;9.688;2023-06-22T13:05:06;11.23;;;10.43;;
4957;SDS011;2494;51.872;9.688;2023-06-22T13:07:52;12.10;;;11.30;;
4957;SDS011;2494;51.872;9.688;2023-06-22T13:10:38;12.43;;;11.50;;
4957;SDS011;2494;51.872;9.688;2023-06-22T13:13:23;12.23;;;11.13;;
4957;SDS011;2494;51.872;9.688;2023-06-22T13:16:09;12.50;;;11.50;;
4957;SDS011;2494;51.872;9.688;2023-06-22T13:18:54;12.63;;;11.63;;
4957;SDS011;2494;51.872;9.688;2023-06-22T13:21:39;12.77;;;11.77;;
4957;SDS011;2494;51.872;9.688;2023-06-22T13:24:26;12.60;;;11.80;;
4957;SDS011;2494;51.872;9.688;2023-06-22T13:27:11;14.40;;;13.03;;
4957;SDS011;2494;51.872;9.688;2023-06-22T13:29:56;12.80;;;11.97;;
4957;SDS011;2494;51.872;9.688;2023-06-22T13:32:41;13.30;;;12.30;;
4957;SDS011;2494;51.872;9.688;2023-06-22T13:35:27;13.47;;;12.57;;
4957;SDS011;2494;51.872;9.688;2023-06-22T13:38:11;14.73;;;13.47;;
4957;SDS011;2494;51.872;9.688;2023-06-22T13:40:58;15.73;;;14.53;;
4957;SDS011;2494;51.872;9.688;2023-06-22T13:43:44;15.20;;;14.00;;
4957;SDS011;2494;51.872;9.688;2023-06-22T13:46:29;15.40;;;13.93;;
4957;SDS011;2494;51.872;9.688;2023-06-22T13:49:14;15.33;;;14.23;;
4957;SDS011;2494;51.872;9.688;2023-06-22T13:51:59;15.60;;;14.30;;
4957;SDS011;2494;51.872;9.688;2023-06-22T13:54:44;14.63;;;13.53;;
4957;SDS011;2494;51.872;9.688;2023-06-22T13:57:30;14.20;;;13.30;;
4957;SDS011;2494;51.872;9.688;2023-06-22T14:00:15;14.87;;;13.40;;
4957;SDS011;2494;51.872;9.688;2023-06-22T14:03:00;14.13;;;12.93;;
4957;SDS011;2494;51.872;9.688;2023-06-22T14:05:45;14.70;;;13.67;;
4957;SDS011;2494;51.872;9.688;2023-06-22T14:08:32;15.10;;;13.90;;
4957;SDS011;2494;51.872;9.688;2023-06-22T14:11:17;14.70;;;13.50;;
4957;SDS011;2494;51.872;9.688;2023-06-22T14:14:03;15.20;;;14.10;;
4957;SDS011;2494;51.872;9.688;2023-06-22T14:16:48;15.20;;;14.20;;
4957;SDS011;2494;51.872;9.688;2023-06-22T14:19:34;15.03;;;13.93;;
4957;SDS011;2494;51.872;9.688;2023-06-22T14:22:18;16.00;;;14.80;;
4957;SDS011;2494;51.872;9.688;2023-06-22T14:25:04;14.60;;;13.20;;
4957;SDS011;2494;51.872;9.688;2023-06-22T14:27:49;15.20;;;13.90;;
4957;SDS011;2494;51.872;9.688;2023-06-22T14:30:36;15.93;;;14.43;;
4957;SDS011;2494;51.872;9.688;2023-06-22T14:33:21;15.00;;;13.83;;
4957;SDS011;2494;51.872;9.688;2023-06-22T14:36:06;15.40;;;14.23;;
4957;SDS011;2494;51.872;9.688;2023-06-22T14:38:52;16.47;;;15.17;;
4957;SDS011;2494;51.872;9.688;2023-06-22T14:41:37;16.47;;;15.10;;
4957;SDS011;2494;51.872;9.688;2023-06-22T14:44:22;16.53;;;15.03;;
4957;SDS011;2494;51.872;9.688;2023-06-22T14:47:08;16.40;;;15.17;;
4957;SDS011;2494;51.872;9.688;2023-06-22T14:49:54;15.50;;;14.50;;
4957;SDS011;2494;51.872;9.688;2023-06-22T14:52:40;17.50;;;15.90;;
4957;SDS011;2494;51.872;9.688;2023-06-22T14:55:24;20.57;;;17.83;;
4957;SDS011;2494;51.872;9.688;2023-06-22T14:58:09;111.87;;;44.30;;
4957;SDS011;2494;51.872;9.688;2023-06-22T15:00:55;23.73;;;19.30;;
4957;SDS011;2494;51.872;9.688;2023-06-22T15:03:41;16.00;;;14.80;;
4957;SDS011;2494;51.872;9.688;2023-06-22T15:06:26;16.73;;;15.40;;
4957;SDS011;2494;51.872;9.688;2023-06-22T15:09:11;16.07;;;14.87;;
4957;SDS011;2494;51.872;9.688;2023-06-22T15:11:56;16.43;;;15.23;;
4957;SDS011;2494;51.872;9.688;2023-06-22T15:14:41;17.30;;;15.80;;
4957;SDS011;2494;51.872;9.688;2023-06-22T15:17:26;18.13;;;16.63;;
4957;SDS011;2494;51.872;9.688;2023-06-22T15:20:14;21.50;;;19.80;;
4957;SDS011;2494;51.872;9.688;2023-06-22T15:22:59;19.63;;;17.83;;
4957;SDS011;2494;51.872;9.688;2023-06-22T15:25:44;23.37;;;21.37;;
4957;SDS011;2494;51.872;9.688;2023-06-22T15:28:31;22.83;;;20.67;;
4957;SDS011;2494;51.872;9.688;2023-06-22T15:31:30;24.27;;;22.17;;
4957;SDS011;2494;51.872;9.688;2023-06-22T15:34:15;25.87;;;23.47;;
4957;SDS011;2494;51.872;9.688;2023-06-22T15:37:01;26.10;;;23.90;;
4957;SDS011;2494;51.872;9.688;2023-06-22T15:39:46;27.37;;;24.27;;
4957;SDS011;2494;51.872;9.688;2023-06-22T15:42:32;29.80;;;27.20;;
4957;SDS011;2494;51.872;9.688;2023-06-22T15:45:17;29.10;;;26.43;;
4957;SDS011;2494;51.872;9.688;2023-06-22T15:48:02;29.87;;;27.37;;
4957;SDS011;2494;51.872;9.688;2023-06-22T15:50:48;32.93;;;29.50;;
4957;SDS011;2494;51.872;9.688;2023-06-22T15:53:34;32.53;;;29.30;;
4957;SDS011;2494;51.872;9.688;2023-06-22T15:56:19;33.77;;;30.73;;
4957;SDS011;2494;51.872;9.688;2023-06-22T15:59:04;36.20;;;33.00;;
4957;SDS011;2494;51.872;9.688;2023-06-22T16:01:49;36.07;;;32.47;;
4957;SDS011;2494;51.872;9.688;2023-06-22T16:04:34;34.57;;;31.57;;
4957;SDS011;2494;51.872;9.688;2023-06-22T16:07:19;35.63;;;32.30;;
4957;SDS011;2494;51.872;9.688;2023-06-22T16:10:06;35.83;;;32.30;;
4957;SDS011;2494;51.872;9.688;2023-06-22T16:12:52;37.10;;;33.40;;
4957;SDS011;2494;51.872;9.688;2023-06-22T16:15:37;34.83;;;31.63;;
4957;SDS011;2494;51.872;9.688;2023-06-22T16:18:22;35.17;;;32.07;;
4957;SDS011;2494;51.872;9.688;2023-06-22T16:21:07;38.47;;;34.70;;
4957;SDS011;2494;51.872;9.688;2023-06-22T16:23:52;34.60;;;30.77;;
4957;SDS011;2494;51.872;9.688;2023-06-22T16:26:39;32.23;;;29.23;;
4957;SDS011;2494;51.872;9.688;2023-06-22T16:29:24;30.77;;;28.10;;
4957;SDS011;2494;51.872;9.688;2023-06-22T16:32:09;24.60;;;22.50;;
4957;SDS011;2494;51.872;9.688;2023-06-22T16:34:55;22.77;;;20.40;;
4957;SDS011;2494;51.872;9.688;2023-06-22T16:37:40;19.33;;;17.60;;
4957;SDS011;2494;51.872;9.688;2023-06-22T16:40:25;22.50;;;20.60;;
4957;SDS011;2494;51.872;9.688;2023-06-22T16:43:11;24.27;;;22.27;;
4957;SDS011;2494;51.872;9.688;2023-06-22T16:45:56;22.93;;;20.87;;